Dewey, Utah
Current Conditions -  °F | °C
As of 3:53 AM on Wednesday 26 Nov 2014 (Local Time) from KCNY Reporting Station
Clear Clear  
Wind Chill: 21°   Ceiling: Unl
Heat Index: 21°   Visibility: 10mi
Dew Point:   Wind: 3mph
Humidity: 50%   Direction: 140°SE
Pressure: 30.32"   Gusts: NA
Location:  38.81°N, 109.3°W
Report Text: KCNY 261053Z AUTO 14003KT 10SM CLR M06/M15 A3032 RMK AO2 SLP285 T10611150
Loading
Personal Weather Stations






























Interactive Weather Map New forecast layout! Learn more

10-Day Weather Forecast

Advertisements
Track Severe Weather on mobile